Neon, Kentucky
Current Conditions -  °F | °C
As of 7:35 AM on Saturday 20 Dec 2014 (Local Time) from KLNP Reporting Station
Overcast Overcast  
Wind Chill: 32°   Ceiling: 4000
Heat Index: 32°   Visibility: 10mi
Dew Point: 32°   Wind: 0mph
Humidity: 100%   Direction: NA
Pressure: 30.16"   Gusts: NA
Location:  37.19°N, 82.71°W
Report Text: KLNP 201235Z AUTO 00000KT 10SM BKN040 BKN049 OVC085 00/00 A3016 RMK AO2
Loading
Personal Weather Stations






























Interactive Weather Map New forecast layout! Learn more

10-Day Weather Forecast

Advertisements
Track Severe Weather on mobile